Zoar, Massachusetts
Current Conditions -  °F | °C
As of 4:52 PM on Monday 20 Oct 2014 (Local Time) from KAQW Reporting Station
Overcast Overcast  
Wind Chill: 51°   Ceiling: 8000
Heat Index: 51°   Visibility: 10mi
Dew Point: 32°   Wind: 8mph
Humidity: 48%   Direction: 260°W
Pressure: 29.95"   Gusts: NA
Location:  42.6912°N, 72.9302°W
Report Text: KAQW 202052Z AUTO 26007KT 10SM FEW060 OVC080 11/00 A2995 RMK AO2 SLP148 T01060000 55001
Loading
Personal Weather Stations






























Interactive Weather Map
Tropical Storm Tracking
New forecast layout! Learn more

10-Day Weather Forecast

Advertisements
Track Severe Weather on mobile